sensor_id;sensor_type;location;lat;lon;timestamp;temperature;humidity
52451;DHT22;38366;53.176;6.540;2022-10-16T00:00:17;12.70;99.90
52451;DHT22;38366;53.176;6.540;2022-10-16T00:02:43;12.60;99.90
52451;DHT22;38366;53.176;6.540;2022-10-16T00:05:08;12.60;99.90
52451;DHT22;38366;53.176;6.540;2022-10-16T00:07:34;12.60;99.90
52451;DHT22;38366;53.176;6.540;2022-10-16T00:10:00;12.60;99.90
52451;DHT22;38366;53.176;6.540;2022-10-16T00:12:25;12.60;99.90
52451;DHT22;38366;53.176;6.540;2022-10-16T00:14:51;12.50;99.90
52451;DHT22;38366;53.176;6.540;2022-10-16T00:17:17;12.50;99.90
52451;DHT22;38366;53.176;6.540;2022-10-16T00:19:43;12.50;99.90
52451;DHT22;38366;53.176;6.540;2022-10-16T00:22:08;12.50;99.90
52451;DHT22;38366;53.176;6.540;2022-10-16T00:24:34;12.50;99.90
52451;DHT22;38366;53.176;6.540;2022-10-16T00:26:59;12.50;99.90
52451;DHT22;38366;53.176;6.540;2022-10-16T00:29:25;12.50;99.90
52451;DHT22;38366;53.176;6.540;2022-10-16T00:31:51;12.50;99.90
52451;DHT22;38366;53.176;6.540;2022-10-16T00:34:16;12.50;99.90
52451;DHT22;38366;53.176;6.540;2022-10-16T00:36:42;12.50;99.90
52451;DHT22;38366;53.176;6.540;2022-10-16T00:39:08;12.60;99.90
52451;DHT22;38366;53.176;6.540;2022-10-16T00:41:34;12.60;99.90
52451;DHT22;38366;53.176;6.540;2022-10-16T00:44:03;12.60;99.90
52451;DHT22;38366;53.176;6.540;2022-10-16T00:46:39;12.50;99.90
52451;DHT22;38366;53.176;6.540;2022-10-16T00:49:12;12.60;99.90
52451;DHT22;38366;53.176;6.540;2022-10-16T00:51:45;12.60;99.90
52451;DHT22;38366;53.176;6.540;2022-10-16T00:54:19;12.60;99.90
52451;DHT22;38366;53.176;6.540;2022-10-16T00:56:46;12.60;99.90
52451;DHT22;38366;53.176;6.540;2022-10-16T00:59:18;12.70;99.90
52451;DHT22;38366;53.176;6.540;2022-10-16T01:01:44;12.70;99.90
52451;DHT22;38366;53.176;6.540;2022-10-16T01:04:10;12.70;99.90
52451;DHT22;38366;53.176;6.540;2022-10-16T01:06:43;12.70;99.90
52451;DHT22;38366;53.176;6.540;2022-10-16T01:09:19;12.70;99.90
52451;DHT22;38366;53.176;6.540;2022-10-16T01:11:57;12.70;99.90
52451;DHT22;38366;53.176;6.540;2022-10-16T01:19:41;12.80;99.90
52451;DHT22;38366;53.176;6.540;2022-10-16T01:22:09;12.80;99.90
52451;DHT22;38366;53.176;6.540;2022-10-16T01:29:49;12.80;99.90
52451;DHT22;38366;53.176;6.540;2022-10-16T01:32:38;12.70;99.90
52451;DHT22;38366;53.176;6.540;2022-10-16T01:37:43;12.70;99.90
52451;DHT22;38366;53.176;6.540;2022-10-16T01:40:13;12.70;99.90
52451;DHT22;38366;53.176;6.540;2022-10-16T01:42:46;12.60;99.90
52451;DHT22;38366;53.176;6.540;2022-10-16T01:45:14;12.60;99.90
52451;DHT22;38366;53.176;6.540;2022-10-16T01:47:43;12.70;99.90
52451;DHT22;38366;53.176;6.540;2022-10-16T01:50:10;12.70;99.90
52451;DHT22;38366;53.176;6.540;2022-10-16T01:52:39;12.80;99.90
52451;DHT22;38366;53.176;6.540;2022-10-16T01:55:09;12.80;99.90
52451;DHT22;38366;53.176;6.540;2022-10-16T01:57:38;12.70;99.90
52451;DHT22;38366;53.176;6.540;2022-10-16T02:00:09;12.70;99.90
52451;DHT22;38366;53.176;6.540;2022-10-16T02:02:36;12.70;99.90
52451;DHT22;38366;53.176;6.540;2022-10-16T02:05:14;12.70;99.90
52451;DHT22;38366;53.176;6.540;2022-10-16T02:07:41;12.70;99.90
52451;DHT22;38366;53.176;6.540;2022-10-16T02:10:08;12.70;99.90
52451;DHT22;38366;53.176;6.540;2022-10-16T02:12:37;12.70;99.90
52451;DHT22;38366;53.176;6.540;2022-10-16T02:15:05;12.60;99.90
52451;DHT22;38366;53.176;6.540;2022-10-16T02:17:31;12.60;99.90
52451;DHT22;38366;53.176;6.540;2022-10-16T02:19:58;12.60;99.90
52451;DHT22;38366;53.176;6.540;2022-10-16T02:22:32;12.60;99.90
52451;DHT22;38366;53.176;6.540;2022-10-16T02:25:19;12.60;99.90
52451;DHT22;38366;53.176;6.540;2022-10-16T02:28:17;12.70;99.90
52451;DHT22;38366;53.176;6.540;2022-10-16T02:30:59;12.60;99.90
52451;DHT22;38366;53.176;6.540;2022-10-16T02:33:28;12.70;99.90
52451;DHT22;38366;53.176;6.540;2022-10-16T02:35:55;12.70;99.90
52451;DHT22;38366;53.176;6.540;2022-10-16T02:38:21;12.70;99.90
52451;DHT22;38366;53.176;6.540;2022-10-16T02:40:48;12.70;99.90
52451;DHT22;38366;53.176;6.540;2022-10-16T02:43:14;12.70;99.90
52451;DHT22;38366;53.176;6.540;2022-10-16T02:45:43;12.60;99.90
52451;DHT22;38366;53.176;6.540;2022-10-16T02:48:09;12.70;99.90
52451;DHT22;38366;53.176;6.540;2022-10-16T02:50:35;12.70;99.90
52451;DHT22;38366;53.176;6.540;2022-10-16T02:53:00;12.70;99.90
52451;DHT22;38366;53.176;6.540;2022-10-16T02:55:26;12.70;99.90
52451;DHT22;38366;53.176;6.540;2022-10-16T02:57:53;12.80;99.90
52451;DHT22;38366;53.176;6.540;2022-10-16T03:00:20;12.80;99.90
52451;DHT22;38366;53.176;6.540;2022-10-16T03:02:46;13.00;99.90
52451;DHT22;38366;53.176;6.540;2022-10-16T03:05:13;13.00;99.90
52451;DHT22;38366;53.176;6.540;2022-10-16T03:07:39;13.10;99.90
52451;DHT22;38366;53.176;6.540;2022-10-16T03:10:05;13.10;99.90
52451;DHT22;38366;53.176;6.540;2022-10-16T03:12:31;13.20;99.90
52451;DHT22;38366;53.176;6.540;2022-10-16T03:14:57;13.20;99.90
52451;DHT22;38366;53.176;6.540;2022-10-16T03:17:24;13.20;99.90
52451;DHT22;38366;53.176;6.540;2022-10-16T03:19:49;13.20;99.90
52451;DHT22;38366;53.176;6.540;2022-10-16T03:22:15;13.30;99.90
52451;DHT22;38366;53.176;6.540;2022-10-16T03:24:41;13.20;99.90
52451;DHT22;38366;53.176;6.540;2022-10-16T03:27:08;13.30;99.90
52451;DHT22;38366;53.176;6.540;2022-10-16T03:29:34;13.30;99.90
52451;DHT22;38366;53.176;6.540;2022-10-16T03:32:00;13.30;99.90
52451;DHT22;38366;53.176;6.540;2022-10-16T03:34:26;13.20;99.90
52451;DHT22;38366;53.176;6.540;2022-10-16T03:36:52;13.20;99.90
52451;DHT22;38366;53.176;6.540;2022-10-16T03:39:18;13.10;99.90
52451;DHT22;38366;53.176;6.540;2022-10-16T03:41:43;13.10;99.90
52451;DHT22;38366;53.176;6.540;2022-10-16T03:44:09;13.10;99.90
52451;DHT22;38366;53.176;6.540;2022-10-16T03:46:35;13.00;99.90
52451;DHT22;38366;53.176;6.540;2022-10-16T03:49:00;13.00;99.90
52451;DHT22;38366;53.176;6.540;2022-10-16T03:51:26;12.90;99.90
52451;DHT22;38366;53.176;6.540;2022-10-16T03:53:52;12.90;99.90
52451;DHT22;38366;53.176;6.540;2022-10-16T03:56:18;12.80;99.90
52451;DHT22;38366;53.176;6.540;2022-10-16T03:58:44;12.90;99.90
52451;DHT22;38366;53.176;6.540;2022-10-16T04:01:09;12.90;99.90
52451;DHT22;38366;53.176;6.540;2022-10-16T04:03:35;12.90;99.90
52451;DHT22;38366;53.176;6.540;2022-10-16T04:06:01;12.80;99.90
52451;DHT22;38366;53.176;6.540;2022-10-16T04:08:26;12.80;99.90
52451;DHT22;38366;53.176;6.540;2022-10-16T04:10:52;12.80;99.90
52451;DHT22;38366;53.176;6.540;2022-10-16T04:13:17;12.70;99.90
52451;DHT22;38366;53.176;6.540;2022-10-16T04:15:45;12.70;99.90
52451;DHT22;38366;53.176;6.540;2022-10-16T04:18:11;12.70;99.90
52451;DHT22;38366;53.176;6.540;2022-10-16T04:20:36;12.70;99.90
52451;DHT22;38366;53.176;6.540;2022-10-16T04:23:02;12.70;99.90
52451;DHT22;38366;53.176;6.540;2022-10-16T04:25:28;12.70;99.90
52451;DHT22;38366;53.176;6.540;2022-10-16T04:27:54;12.70;99.90
52451;DHT22;38366;53.176;6.540;2022-10-16T04:30:21;12.60;99.90
52451;DHT22;38366;53.176;6.540;2022-10-16T04:32:51;12.70;99.90
52451;DHT22;38366;53.176;6.540;2022-10-16T04:35:21;12.60;99.90
52451;DHT22;38366;53.176;6.540;2022-10-16T04:37:46;12.60;99.90
52451;DHT22;38366;53.176;6.540;2022-10-16T04:40:13;12.60;99.90
52451;DHT22;38366;53.176;6.540;2022-10-16T04:42:39;12.60;99.90
52451;DHT22;38366;53.176;6.540;2022-10-16T04:45:05;12.70;99.90
52451;DHT22;38366;53.176;6.540;2022-10-16T04:47:31;12.70;99.90
52451;DHT22;38366;53.176;6.540;2022-10-16T04:49:57;12.70;99.90
52451;DHT22;38366;53.176;6.540;2022-10-16T04:52:23;12.70;99.90
52451;DHT22;38366;53.176;6.540;2022-10-16T04:54:50;12.70;99.90
52451;DHT22;38366;53.176;6.540;2022-10-16T04:57:16;12.70;99.90
52451;DHT22;38366;53.176;6.540;2022-10-16T04:59:42;12.80;99.90
52451;DHT22;38366;53.176;6.540;2022-10-16T05:02:08;12.90;99.90
52451;DHT22;38366;53.176;6.540;2022-10-16T05:04:33;12.90;99.90
52451;DHT22;38366;53.176;6.540;2022-10-16T05:06:59;12.80;99.90
52451;DHT22;38366;53.176;6.540;2022-10-16T05:09:25;12.90;99.90
52451;DHT22;38366;53.176;6.540;2022-10-16T05:11:50;12.90;99.90
52451;DHT22;38366;53.176;6.540;2022-10-16T05:14:16;12.90;99.90
52451;DHT22;38366;53.176;6.540;2022-10-16T05:16:42;12.80;99.90
52451;DHT22;38366;53.176;6.540;2022-10-16T05:19:07;12.80;99.90
52451;DHT22;38366;53.176;6.540;2022-10-16T05:21:33;12.80;99.90
52451;DHT22;38366;53.176;6.540;2022-10-16T05:23:59;12.80;99.90
52451;DHT22;38366;53.176;6.540;2022-10-16T05:26:24;12.80;99.90
52451;DHT22;38366;53.176;6.540;2022-10-16T05:28:50;12.70;99.90
52451;DHT22;38366;53.176;6.540;2022-10-16T05:31:15;12.60;99.90
52451;DHT22;38366;53.176;6.540;2022-10-16T05:33:41;12.70;99.90
52451;DHT22;38366;53.176;6.540;2022-10-16T05:36:09;12.60;99.90
52451;DHT22;38366;53.176;6.540;2022-10-16T05:38:36;12.60;99.90
52451;DHT22;38366;53.176;6.540;2022-10-16T05:41:03;12.60;99.90
52451;DHT22;38366;53.176;6.540;2022-10-16T05:43:30;12.50;99.90
52451;DHT22;38366;53.176;6.540;2022-10-16T05:45:56;12.50;99.90
52451;DHT22;38366;53.176;6.540;2022-10-16T05:48:23;12.50;99.90
52451;DHT22;38366;53.176;6.540;2022-10-16T05:50:48;12.50;99.90
52451;DHT22;38366;53.176;6.540;2022-10-16T05:53:21;12.50;99.90
52451;DHT22;38366;53.176;6.540;2022-10-16T05:55:55;12.50;99.90
52451;DHT22;38366;53.176;6.540;2022-10-16T05:58:21;12.50;99.90
52451;DHT22;38366;53.176;6.540;2022-10-16T06:00:58;12.60;99.90
52451;DHT22;38366;53.176;6.540;2022-10-16T06:03:25;12.60;99.90
52451;DHT22;38366;53.176;6.540;2022-10-16T06:05:51;12.60;99.90
52451;DHT22;38366;53.176;6.540;2022-10-16T06:08:18;12.60;99.90
52451;DHT22;38366;53.176;6.540;2022-10-16T06:10:45;12.70;99.90
52451;DHT22;38366;53.176;6.540;2022-10-16T06:13:12;12.70;99.90
52451;DHT22;38366;53.176;6.540;2022-10-16T06:15:38;12.70;99.90
52451;DHT22;38366;53.176;6.540;2022-10-16T06:18:05;12.70;99.90
52451;DHT22;38366;53.176;6.540;2022-10-16T06:20:31;12.80;99.90
52451;DHT22;38366;53.176;6.540;2022-10-16T06:22:57;12.80;99.90
52451;DHT22;38366;53.176;6.540;2022-10-16T06:25:22;12.80;99.90
52451;DHT22;38366;53.176;6.540;2022-10-16T06:27:48;12.90;99.90
52451;DHT22;38366;53.176;6.540;2022-10-16T06:30:14;12.90;99.90
52451;DHT22;38366;53.176;6.540;2022-10-16T06:32:42;13.00;99.90
52451;DHT22;38366;53.176;6.540;2022-10-16T06:35:08;13.00;99.90
52451;DHT22;38366;53.176;6.540;2022-10-16T06:37:33;13.10;99.90
52451;DHT22;38366;53.176;6.540;2022-10-16T06:39:59;13.10;99.90
52451;DHT22;38366;53.176;6.540;2022-10-16T06:42:25;13.10;99.90
52451;DHT22;38366;53.176;6.540;2022-10-16T06:44:51;13.20;99.90
52451;DHT22;38366;53.176;6.540;2022-10-16T06:47:17;13.20;99.90
52451;DHT22;38366;53.176;6.540;2022-10-16T06:49:43;13.50;99.90
52451;DHT22;38366;53.176;6.540;2022-10-16T06:52:08;13.40;99.90
52451;DHT22;38366;53.176;6.540;2022-10-16T06:54:34;13.50;99.90
52451;DHT22;38366;53.176;6.540;2022-10-16T06:57:00;13.50;99.90
52451;DHT22;38366;53.176;6.540;2022-10-16T06:59:27;13.50;99.90
52451;DHT22;38366;53.176;6.540;2022-10-16T07:01:53;13.50;99.90
52451;DHT22;38366;53.176;6.540;2022-10-16T07:04:18;13.50;99.90
52451;DHT22;38366;53.176;6.540;2022-10-16T07:06:44;13.50;99.90
52451;DHT22;38366;53.176;6.540;2022-10-16T07:09:10;13.50;99.90
52451;DHT22;38366;53.176;6.540;2022-10-16T07:11:38;13.50;99.90
52451;DHT22;38366;53.176;6.540;2022-10-16T07:14:04;13.40;99.90
52451;DHT22;38366;53.176;6.540;2022-10-16T07:16:31;13.40;99.90
52451;DHT22;38366;53.176;6.540;2022-10-16T07:18:58;13.40;99.90
52451;DHT22;38366;53.176;6.540;2022-10-16T07:21:26;13.50;99.90
52451;DHT22;38366;53.176;6.540;2022-10-16T07:23:56;13.50;99.90
52451;DHT22;38366;53.176;6.540;2022-10-16T07:26:23;13.50;99.90
52451;DHT22;38366;53.176;6.540;2022-10-16T07:28:49;13.50;99.90
52451;DHT22;38366;53.176;6.540;2022-10-16T07:31:16;13.50;99.90
52451;DHT22;38366;53.176;6.540;2022-10-16T07:33:43;13.40;99.90
52451;DHT22;38366;53.176;6.540;2022-10-16T07:36:11;13.40;99.90
52451;DHT22;38366;53.176;6.540;2022-10-16T07:38:37;13.40;99.90
52451;DHT22;38366;53.176;6.540;2022-10-16T07:41:05;13.30;99.90
52451;DHT22;38366;53.176;6.540;2022-10-16T07:43:32;13.40;99.90
52451;DHT22;38366;53.176;6.540;2022-10-16T07:45:58;13.40;99.90
52451;DHT22;38366;53.176;6.540;2022-10-16T07:48:26;13.40;99.90
52451;DHT22;38366;53.176;6.540;2022-10-16T07:50:52;13.40;99.90
52451;DHT22;38366;53.176;6.540;2022-10-16T07:53:18;13.50;99.90
52451;DHT22;38366;53.176;6.540;2022-10-16T07:55:43;13.50;99.90
52451;DHT22;38366;53.176;6.540;2022-10-16T07:58:09;13.70;99.90
52451;DHT22;38366;53.176;6.540;2022-10-16T08:00:36;13.90;99.90
52451;DHT22;38366;53.176;6.540;2022-10-16T08:03:02;13.90;99.90
52451;DHT22;38366;53.176;6.540;2022-10-16T08:05:29;14.30;99.90
52451;DHT22;38366;53.176;6.540;2022-10-16T08:07:55;14.90;99.90
52451;DHT22;38366;53.176;6.540;2022-10-16T08:10:24;15.50;99.90
52451;DHT22;38366;53.176;6.540;2022-10-16T08:12:50;16.10;99.90
52451;DHT22;38366;53.176;6.540;2022-10-16T08:15:16;16.10;99.90
52451;DHT22;38366;53.176;6.540;2022-10-16T08:17:42;16.00;99.90
52451;DHT22;38366;53.176;6.540;2022-10-16T08:20:09;16.20;99.90
52451;DHT22;38366;53.176;6.540;2022-10-16T08:22:34;16.70;99.90
52451;DHT22;38366;53.176;6.540;2022-10-16T08:25:00;16.70;99.90
52451;DHT22;38366;53.176;6.540;2022-10-16T08:27:31;16.40;99.90
52451;DHT22;38366;53.176;6.540;2022-10-16T08:29:57;16.30;99.90
52451;DHT22;38366;53.176;6.540;2022-10-16T08:32:23;16.70;99.90
52451;DHT22;38366;53.176;6.540;2022-10-16T08:34:48;17.40;99.90
52451;DHT22;38366;53.176;6.540;2022-10-16T08:37:14;17.90;99.90
52451;DHT22;38366;53.176;6.540;2022-10-16T08:39:40;18.30;99.90
52451;DHT22;38366;53.176;6.540;2022-10-16T08:42:53;18.60;99.90
52451;DHT22;38366;53.176;6.540;2022-10-16T08:48:05;19.10;99.90
52451;DHT22;38366;53.176;6.540;2022-10-16T08:50:36;19.20;99.90
52451;DHT22;38366;53.176;6.540;2022-10-16T08:53:04;19.60;99.90
52451;DHT22;38366;53.176;6.540;2022-10-16T08:55:37;19.50;99.90
52451;DHT22;38366;53.176;6.540;2022-10-16T08:58:17;19.50;99.90
52451;DHT22;38366;53.176;6.540;2022-10-16T09:00:47;19.70;99.90
52451;DHT22;38366;53.176;6.540;2022-10-16T09:05:52;20.20;99.90
52451;DHT22;38366;53.176;6.540;2022-10-16T09:20:02;20.50;99.90
52451;DHT22;38366;53.176;6.540;2022-10-16T09:22:31;20.50;99.90
52451;DHT22;38366;53.176;6.540;2022-10-16T09:25:00;20.40;99.90
52451;DHT22;38366;53.176;6.540;2022-10-16T09:27:35;20.70;99.90
52451;DHT22;38366;53.176;6.540;2022-10-16T09:33:06;20.20;99.90
52451;DHT22;38366;53.176;6.540;2022-10-16T09:35:39;20.40;99.90
52451;DHT22;38366;53.176;6.540;2022-10-16T09:38:06;20.50;99.90
52451;DHT22;38366;53.176;6.540;2022-10-16T09:40:37;20.20;99.90
52451;DHT22;38366;53.176;6.540;2022-10-16T09:43:24;19.80;99.90
52451;DHT22;38366;53.176;6.540;2022-10-16T09:46:08;19.60;99.90
52451;DHT22;38366;53.176;6.540;2022-10-16T09:48:48;19.80;99.90
52451;DHT22;38366;53.176;6.540;2022-10-16T09:51:20;20.10;99.90
52451;DHT22;38366;53.176;6.540;2022-10-16T09:53:47;20.50;99.90
52451;DHT22;38366;53.176;6.540;2022-10-16T09:56:22;20.50;99.90
52451;DHT22;38366;53.176;6.540;2022-10-16T09:58:54;20.20;99.90
52451;DHT22;38366;53.176;6.540;2022-10-16T10:01:24;20.20;99.90
52451;DHT22;38366;53.176;6.540;2022-10-16T10:03:50;20.50;99.90
52451;DHT22;38366;53.176;6.540;2022-10-16T10:06:28;20.90;99.90
52451;DHT22;38366;53.176;6.540;2022-10-16T10:09:02;20.80;99.90
52451;DHT22;38366;53.176;6.540;2022-10-16T10:11:39;20.40;99.90
52451;DHT22;38366;53.176;6.540;2022-10-16T10:14:27;20.50;99.90
52451;DHT22;38366;53.176;6.540;2022-10-16T10:17:14;20.60;99.90
52451;DHT22;38366;53.176;6.540;2022-10-16T10:33:41;23.20;99.90
52451;DHT22;38366;53.176;6.540;2022-10-16T10:36:36;23.20;99.90
52451;DHT22;38366;53.176;6.540;2022-10-16T10:39:23;23.00;99.90
52451;DHT22;38366;53.176;6.540;2022-10-16T10:42:00;22.80;99.90
52451;DHT22;38366;53.176;6.540;2022-10-16T10:47:00;22.40;99.90
52451;DHT22;38366;53.176;6.540;2022-10-16T10:49:41;22.40;99.90
52451;DHT22;38366;53.176;6.540;2022-10-16T10:52:30;22.40;99.90
52451;DHT22;38366;53.176;6.540;2022-10-16T10:55:16;22.80;99.90
52451;DHT22;38366;53.176;6.540;2022-10-16T10:58:05;22.70;99.90
52451;DHT22;38366;53.176;6.540;2022-10-16T11:06:00;22.90;99.90
52451;DHT22;38366;53.176;6.540;2022-10-16T11:08:40;23.10;99.90
52451;DHT22;38366;53.176;6.540;2022-10-16T11:11:41;23.10;99.90
52451;DHT22;38366;53.176;6.540;2022-10-16T11:14:20;23.80;99.90
52451;DHT22;38366;53.176;6.540;2022-10-16T11:17:00;23.60;99.90
52451;DHT22;38366;53.176;6.540;2022-10-16T11:22:38;23.80;99.70
52451;DHT22;38366;53.176;6.540;2022-10-16T11:25:21;23.40;99.70
52451;DHT22;38366;53.176;6.540;2022-10-16T11:28:03;22.40;99.90
52451;DHT22;38366;53.176;6.540;2022-10-16T11:30:51;22.30;99.90
52451;DHT22;38366;53.176;6.540;2022-10-16T11:33:41;22.80;99.90
52451;DHT22;38366;53.176;6.540;2022-10-16T11:36:23;23.40;99.90
52451;DHT22;38366;53.176;6.540;2022-10-16T11:38:52;24.10;99.90
52451;DHT22;38366;53.176;6.540;2022-10-16T11:41:48;24.60;98.80
52451;DHT22;38366;53.176;6.540;2022-10-16T11:49:55;25.00;98.50
52451;DHT22;38366;53.176;6.540;2022-10-16T11:52:28;24.90;99.00
52451;DHT22;38366;53.176;6.540;2022-10-16T11:55:04;25.00;98.90
52451;DHT22;38366;53.176;6.540;2022-10-16T11:57:39;25.40;97.70
52451;DHT22;38366;53.176;6.540;2022-10-16T12:00:17;25.80;97.50
52451;DHT22;38366;53.176;6.540;2022-10-16T12:03:03;25.60;97.20
52451;DHT22;38366;53.176;6.540;2022-10-16T12:05:52;25.20;97.00
52451;DHT22;38366;53.176;6.540;2022-10-16T12:08:20;24.90;97.90
52451;DHT22;38366;53.176;6.540;2022-10-16T12:10:46;24.40;98.60
52451;DHT22;38366;53.176;6.540;2022-10-16T12:13:36;23.80;98.60
52451;DHT22;38366;53.176;6.540;2022-10-16T12:18:37;22.60;98.70
52451;DHT22;38366;53.176;6.540;2022-10-16T12:21:03;22.50;99.60
52451;DHT22;38366;53.176;6.540;2022-10-16T12:23:53;22.50;99.60
52451;DHT22;38366;53.176;6.540;2022-10-16T12:26:39;22.20;99.90
52451;DHT22;38366;53.176;6.540;2022-10-16T12:31:46;22.10;99.90
52451;DHT22;38366;53.176;6.540;2022-10-16T12:39:49;21.20;99.90
52451;DHT22;38366;53.176;6.540;2022-10-16T12:42:34;21.20;99.90
52451;DHT22;38366;53.176;6.540;2022-10-16T12:45:01;21.10;99.90
52451;DHT22;38366;53.176;6.540;2022-10-16T12:49:55;20.50;99.90
52451;DHT22;38366;53.176;6.540;2022-10-16T12:52:38;20.10;99.90
52451;DHT22;38366;53.176;6.540;2022-10-16T12:55:09;20.00;99.90
52451;DHT22;38366;53.176;6.540;2022-10-16T13:01:06;19.80;99.90
52451;DHT22;38366;53.176;6.540;2022-10-16T13:15:07;19.90;99.90
52451;DHT22;38366;53.176;6.540;2022-10-16T13:17:49;19.90;99.90
52451;DHT22;38366;53.176;6.540;2022-10-16T13:23:13;19.90;99.90
52451;DHT22;38366;53.176;6.540;2022-10-16T13:25:52;19.90;99.90
52451;DHT22;38366;53.176;6.540;2022-10-16T13:28:26;19.90;99.90
52451;DHT22;38366;53.176;6.540;2022-10-16T13:30:54;19.80;99.90
52451;DHT22;38366;53.176;6.540;2022-10-16T13:35:57;19.70;99.90
52451;DHT22;38366;53.176;6.540;2022-10-16T13:38:34;19.60;99.90
52451;DHT22;38366;53.176;6.540;2022-10-16T13:41:11;19.50;99.90
52451;DHT22;38366;53.176;6.540;2022-10-16T13:43:38;19.40;99.90
52451;DHT22;38366;53.176;6.540;2022-10-16T13:46:25;19.40;99.90
52451;DHT22;38366;53.176;6.540;2022-10-16T13:49:02;19.30;99.90
52451;DHT22;38366;53.176;6.540;2022-10-16T13:51:29;19.30;99.90
52451;DHT22;38366;53.176;6.540;2022-10-16T13:53:56;19.30;99.90
52451;DHT22;38366;53.176;6.540;2022-10-16T13:56:26;19.40;99.90
52451;DHT22;38366;53.176;6.540;2022-10-16T13:59:45;19.50;99.90
52451;DHT22;38366;53.176;6.540;2022-10-16T14:01:53;19.60;99.90
52451;DHT22;38366;53.176;6.540;2022-10-16T14:04:21;19.60;99.90
52451;DHT22;38366;53.176;6.540;2022-10-16T14:06:50;19.60;99.90
52451;DHT22;38366;53.176;6.540;2022-10-16T14:09:28;19.60;99.90
52451;DHT22;38366;53.176;6.540;2022-10-16T14:12:03;19.60;99.90
52451;DHT22;38366;53.176;6.540;2022-10-16T14:14:44;19.50;99.90
52451;DHT22;38366;53.176;6.540;2022-10-16T14:17:18;19.60;99.90
52451;DHT22;38366;53.176;6.540;2022-10-16T14:19:50;19.70;99.90
52451;DHT22;38366;53.176;6.540;2022-10-16T14:22:37;19.70;99.90
52451;DHT22;38366;53.176;6.540;2022-10-16T14:27:59;19.60;99.90
52451;DHT22;38366;53.176;6.540;2022-10-16T14:30:26;19.50;99.90
52451;DHT22;38366;53.176;6.540;2022-10-16T14:35:34;19.40;99.90
52451;DHT22;38366;53.176;6.540;2022-10-16T14:38:02;19.20;99.90
52451;DHT22;38366;53.176;6.540;2022-10-16T14:40:32;19.10;99.90
52451;DHT22;38366;53.176;6.540;2022-10-16T14:42:59;19.10;99.90
52451;DHT22;38366;53.176;6.540;2022-10-16T14:45:29;19.00;99.90
52451;DHT22;38366;53.176;6.540;2022-10-16T14:47:57;19.00;99.90
52451;DHT22;38366;53.176;6.540;2022-10-16T14:50:24;18.80;99.90
52451;DHT22;38366;53.176;6.540;2022-10-16T14:52:49;18.70;99.90
52451;DHT22;38366;53.176;6.540;2022-10-16T14:55:15;18.60;99.90
52451;DHT22;38366;53.176;6.540;2022-10-16T14:57:42;18.50;99.90
52451;DHT22;38366;53.176;6.540;2022-10-16T15:00:20;18.40;99.90
52451;DHT22;38366;53.176;6.540;2022-10-16T15:02:47;18.30;99.90
52451;DHT22;38366;53.176;6.540;2022-10-16T15:05:25;18.20;99.90
52451;DHT22;38366;53.176;6.540;2022-10-16T15:07:53;18.10;99.90
52451;DHT22;38366;53.176;6.540;2022-10-16T15:10:20;18.10;99.90
52451;DHT22;38366;53.176;6.540;2022-10-16T15:12:46;18.00;99.90
52451;DHT22;38366;53.176;6.540;2022-10-16T15:15:35;18.00;99.90
52451;DHT22;38366;53.176;6.540;2022-10-16T15:18:02;17.90;99.90
52451;DHT22;38366;53.176;6.540;2022-10-16T15:20:33;17.90;99.90
52451;DHT22;38366;53.176;6.540;2022-10-16T15:23:14;17.80;99.90
52451;DHT22;38366;53.176;6.540;2022-10-16T15:25:54;17.70;99.90
52451;DHT22;38366;53.176;6.540;2022-10-16T15:28:21;17.70;99.90
52451;DHT22;38366;53.176;6.540;2022-10-16T15:30:50;17.70;99.90
52451;DHT22;38366;53.176;6.540;2022-10-16T15:33:19;17.60;99.90
52451;DHT22;38366;53.176;6.540;2022-10-16T15:35:49;17.60;99.90
52451;DHT22;38366;53.176;6.540;2022-10-16T15:38:16;17.50;99.90
52451;DHT22;38366;53.176;6.540;2022-10-16T15:40:42;17.40;99.90
52451;DHT22;38366;53.176;6.540;2022-10-16T15:43:08;17.30;99.90
52451;DHT22;38366;53.176;6.540;2022-10-16T15:45:34;17.20;99.90
52451;DHT22;38366;53.176;6.540;2022-10-16T15:48:00;17.10;99.90
52451;DHT22;38366;53.176;6.540;2022-10-16T15:50:26;17.00;99.90
52451;DHT22;38366;53.176;6.540;2022-10-16T15:52:52;16.90;99.90
52451;DHT22;38366;53.176;6.540;2022-10-16T15:55:18;16.80;99.90
52451;DHT22;38366;53.176;6.540;2022-10-16T15:57:45;16.80;99.90
52451;DHT22;38366;53.176;6.540;2022-10-16T16:00:13;16.70;99.90
52451;DHT22;38366;53.176;6.540;2022-10-16T16:02:40;16.70;99.90
52451;DHT22;38366;53.176;6.540;2022-10-16T16:05:11;16.60;99.90
52451;DHT22;38366;53.176;6.540;2022-10-16T16:11:25;16.50;99.90
52451;DHT22;38366;53.176;6.540;2022-10-16T16:13:51;16.60;99.90
52451;DHT22;38366;53.176;6.540;2022-10-16T16:16:29;16.60;99.90
52451;DHT22;38366;53.176;6.540;2022-10-16T16:19:10;16.90;99.90
52451;DHT22;38366;53.176;6.540;2022-10-16T16:21:36;16.60;99.90
52451;DHT22;38366;53.176;6.540;2022-10-16T16:24:02;16.50;99.90
52451;DHT22;38366;53.176;6.540;2022-10-16T16:26:34;16.50;99.90
52451;DHT22;38366;53.176;6.540;2022-10-16T16:29:03;16.40;99.90
52451;DHT22;38366;53.176;6.540;2022-10-16T16:31:30;16.40;99.90
52451;DHT22;38366;53.176;6.540;2022-10-16T16:33:57;16.40;99.90
52451;DHT22;38366;53.176;6.540;2022-10-16T16:36:24;16.30;99.90
52451;DHT22;38366;53.176;6.540;2022-10-16T16:38:50;16.30;99.90
52451;DHT22;38366;53.176;6.540;2022-10-16T16:41:20;16.20;99.90
52451;DHT22;38366;53.176;6.540;2022-10-16T16:43:46;16.10;99.90
52451;DHT22;38366;53.176;6.540;2022-10-16T16:46:13;16.10;99.90
52451;DHT22;38366;53.176;6.540;2022-10-16T16:48:39;16.00;99.90
52451;DHT22;38366;53.176;6.540;2022-10-16T16:51:06;15.90;99.90
52451;DHT22;38366;53.176;6.540;2022-10-16T16:53:35;15.90;99.90
52451;DHT22;38366;53.176;6.540;2022-10-16T16:56:05;15.80;99.90
52451;DHT22;38366;53.176;6.540;2022-10-16T16:58:31;15.70;99.90
52451;DHT22;38366;53.176;6.540;2022-10-16T17:00:57;15.60;99.90
52451;DHT22;38366;53.176;6.540;2022-10-16T17:03:47;15.60;99.90
52451;DHT22;38366;53.176;6.540;2022-10-16T17:06:15;15.60;99.90
52451;DHT22;38366;53.176;6.540;2022-10-16T17:08:41;15.50;99.90
52451;DHT22;38366;53.176;6.540;2022-10-16T17:11:13;15.40;99.90
52451;DHT22;38366;53.176;6.540;2022-10-16T17:13:39;15.30;99.90
52451;DHT22;38366;53.176;6.540;2022-10-16T17:16:05;15.30;99.90
52451;DHT22;38366;53.176;6.540;2022-10-16T17:18:32;15.30;99.90
52451;DHT22;38366;53.176;6.540;2022-10-16T17:21:05;15.20;99.90
52451;DHT22;38366;53.176;6.540;2022-10-16T17:23:31;15.20;99.90
52451;DHT22;38366;53.176;6.540;2022-10-16T17:26:02;15.10;99.90
52451;DHT22;38366;53.176;6.540;2022-10-16T17:28:28;15.00;99.90
52451;DHT22;38366;53.176;6.540;2022-10-16T17:30:53;15.10;99.90
52451;DHT22;38366;53.176;6.540;2022-10-16T17:33:22;15.00;99.90